Time;durP1;ratioP1;P1;durP2;ratioP2;P2;SDS_P1;SDS_P2;PMS_P1;PMS_P2;Temp;Humidity;BMP_temperature;BMP_pressure;BME280_temperature;BME280_humidity;BME280_pressure;Samples;Min_cycle;Max_cycle;Signal;HPM_P1;HPM_P2
2023/04/24 00:01:14;;;;;;;3.20;2.67;;;10.00;99.90;;;;;;4891206;29;20229;-77
2023/04/24 00:03:41;;;;;;;3.90;3.30;;;9.90;99.90;;;;;;4887613;29;20225;-75
2023/04/24 00:06:08;;;;;;;5.27;3.40;;;9.80;99.90;;;;;;4894148;29;20580;-77
2023/04/24 00:08:36;;;;;;;4.13;3.70;;;9.80;99.90;;;;;;4887420;29;20214;-79
2023/04/24 00:11:03;;;;;;;6.00;3.80;;;9.80;99.90;;;;;;4890268;29;20246;-75
2023/04/24 00:13:29;;;;;;;4.23;3.33;;;9.90;99.90;;;;;;4867844;29;20307;-76
2023/04/24 00:15:56;;;;;;;5.50;3.97;;;9.80;99.90;;;;;;4885457;29;20322;-76
2023/04/24 00:18:23;;;;;;;5.10;3.57;;;9.90;99.90;;;;;;4871648;29;20242;-76
2023/04/24 00:20:49;;;;;;;5.03;3.93;;;9.80;99.90;;;;;;4870273;29;20754;-77
2023/04/24 00:23:16;;;;;;;4.47;3.57;;;9.90;99.90;;;;;;4874126;29;20221;-77
2023/04/24 00:25:43;;;;;;;6.43;3.93;;;9.80;99.90;;;;;;4869623;29;20325;-75
2023/04/24 00:28:10;;;;;;;7.87;4.13;;;9.90;99.90;;;;;;4868549;29;20544;-76
2023/04/24 00:30:36;;;;;;;4.50;3.63;;;9.80;99.90;;;;;;4870729;29;20243;-76
2023/04/24 00:33:03;;;;;;;5.40;4.30;;;9.80;99.90;;;;;;4870205;29;20205;-76
2023/04/24 00:35:30;;;;;;;6.47;5.63;;;9.90;99.90;;;;;;4873654;29;20215;-77
2023/04/24 00:37:57;;;;;;;6.57;4.90;;;9.90;99.90;;;;;;4873494;29;20237;-76
2023/04/24 00:40:24;;;;;;;4.80;4.30;;;9.90;99.90;;;;;;4868984;29;20300;-77
2023/04/24 00:42:50;;;;;;;5.43;4.57;;;9.90;99.90;;;;;;4872013;29;20232;-76
2023/04/24 00:45:17;;;;;;;8.37;5.00;;;9.90;99.90;;;;;;4870732;29;20228;-77
2023/04/24 00:47:46;;;;;;;5.97;5.00;;;9.90;99.90;;;;;;4873961;29;20200;-76
2023/04/24 00:50:14;;;;;;;7.47;5.47;;;9.90;99.90;;;;;;4868833;29;20510;-76
2023/04/24 00:52:41;;;;;;;9.47;5.40;;;10.00;99.90;;;;;;4868420;29;20569;-75
2023/04/24 00:55:08;;;;;;;6.97;5.17;;;10.00;99.90;;;;;;4875271;29;20258;-76
2023/04/24 00:57:35;;;;;;;6.90;5.40;;;10.00;99.90;;;;;;4873877;29;20515;-78
2023/04/24 01:00:05;;;;;;;7.03;5.60;;;10.00;99.90;;;;;;4870130;29;20617;-76
2023/04/24 01:02:34;;;;;;;7.93;5.20;;;10.00;99.90;;;;;;4871456;29;20212;-76
2023/04/24 01:05:01;;;;;;;6.53;5.67;;;10.00;99.90;;;;;;4869410;29;20224;-77
2023/04/24 01:07:29;;;;;;;9.20;5.73;;;10.00;99.90;;;;;;4867996;29;20582;-76
2023/04/24 01:09:56;;;;;;;6.07;5.47;;;10.00;99.90;;;;;;4872980;29;20677;-76
2023/04/24 01:12:23;;;;;;;8.00;5.03;;;10.00;99.90;;;;;;4892967;29;20668;-75
2023/04/24 01:14:50;;;;;;;5.67;5.17;;;10.00;99.90;;;;;;4893045;29;20642;-76
2023/04/24 01:17:26;;;;;;;6.43;5.70;;;9.90;99.90;;;;;;4895786;29;20377;-76
2023/04/24 01:19:53;;;;;;;6.23;5.27;;;10.00;99.90;;;;;;4893887;29;20211;-76
2023/04/24 01:22:20;;;;;;;5.20;4.70;;;9.80;99.90;;;;;;4891418;29;20207;-76
2023/04/24 01:24:48;;;;;;;5.50;4.90;;;9.80;99.90;;;;;;4894020;29;20200;-77
2023/04/24 01:27:15;;;;;;;5.60;5.10;;;9.80;99.90;;;;;;4893657;29;20206;-76
2023/04/24 01:29:42;;;;;;;6.10;4.87;;;9.70;99.90;;;;;;4892642;29;20697;-77
2023/04/24 01:32:10;;;;;;;5.77;4.60;;;9.80;99.90;;;;;;4891431;29;20635;-76
2023/04/24 01:34:38;;;;;;;6.03;5.10;;;9.60;99.90;;;;;;4893639;29;20299;-75
2023/04/24 01:37:05;;;;;;;5.90;5.00;;;9.70;99.90;;;;;;4890896;29;20304;-75
2023/04/24 01:39:33;;;;;;;7.03;5.20;;;9.70;99.90;;;;;;4893420;29;20206;-76
2023/04/24 01:42:01;;;;;;;7.23;5.30;;;9.70;99.90;;;;;;4893563;29;20213;-75
2023/04/24 01:44:33;;;;;;;5.97;5.37;;;9.70;99.90;;;;;;4892272;29;20735;-76
2023/04/24 01:47:01;;;;;;;8.67;5.80;;;9.70;99.90;;;;;;4889667;29;20289;-76
2023/04/24 01:49:28;;;;;;;7.30;5.73;;;9.70;99.90;;;;;;4890501;29;20425;-77
2023/04/24 01:51:54;;;;;;;10.70;6.47;;;9.60;99.90;;;;;;4892695;29;20211;-76
2023/04/24 01:54:21;;;;;;;7.20;6.47;;;9.70;99.90;;;;;;4890165;29;20211;-76
2023/04/24 01:56:48;;;;;;;8.43;6.13;;;9.70;99.90;;;;;;4890218;29;20267;-79
2023/04/24 01:59:16;;;;;;;7.83;6.80;;;9.70;99.90;;;;;;4891329;29;20680;-77
2023/04/24 02:01:43;;;;;;;8.10;6.57;;;9.60;99.90;;;;;;4890344;29;20208;-77
2023/04/24 02:04:10;;;;;;;8.50;7.40;;;9.70;99.90;;;;;;4892083;29;20253;-76
2023/04/24 02:06:37;;;;;;;11.07;7.20;;;9.60;99.90;;;;;;4892914;29;20678;-77
2023/04/24 02:09:10;;;;;;;10.23;7.70;;;9.60;99.90;;;;;;4890041;29;20825;-77
2023/04/24 02:11:44;;;;;;;8.53;7.17;;;9.60;99.90;;;;;;4890345;29;20234;-76
2023/04/24 02:14:10;;;;;;;7.87;7.07;;;9.60;99.90;;;;;;4891728;29;20273;-76
2023/04/24 02:16:37;;;;;;;9.00;7.33;;;9.70;99.90;;;;;;4891241;29;20264;-76
2023/04/24 02:19:04;;;;;;;9.70;7.37;;;9.70;99.90;;;;;;4893151;29;20212;-75
2023/04/24 02:21:31;;;;;;;8.53;7.33;;;9.70;99.90;;;;;;4889151;29;20265;-76
2023/04/24 02:23:58;;;;;;;8.30;7.37;;;9.80;99.90;;;;;;4892503;29;20270;-76
2023/04/24 02:26:26;;;;;;;9.13;6.87;;;9.80;99.90;;;;;;4891400;29;20634;-77
2023/04/24 02:28:52;;;;;;;11.63;7.90;;;9.80;99.90;;;;;;4893925;29;20628;-76
2023/04/24 02:31:19;;;;;;;10.20;7.77;;;9.80;99.90;;;;;;4893223;29;20314;-76
2023/04/24 02:33:46;;;;;;;10.47;8.07;;;9.80;99.90;;;;;;4890200;29;20292;-77
2023/04/24 02:36:13;;;;;;;10.03;7.80;;;9.80;99.90;;;;;;4892940;29;20232;-76
2023/04/24 02:38:40;;;;;;;10.60;8.03;;;9.80;99.90;;;;;;4890471;29;20245;-75
2023/04/24 02:41:07;;;;;;;13.60;9.07;;;9.70;99.90;;;;;;4890065;29;20290;-76
2023/04/24 02:43:34;;;;;;;12.23;9.43;;;9.80;99.90;;;;;;4890126;29;20280;-75
2023/04/24 02:46:00;;;;;;;11.33;8.90;;;9.80;99.90;;;;;;4892287;29;20219;-77
2023/04/24 02:48:27;;;;;;;11.40;8.57;;;9.80;99.90;;;;;;4890265;29;20213;-77
2023/04/24 02:50:55;;;;;;;10.90;8.97;;;9.70;99.90;;;;;;4894908;29;20314;-77
2023/04/24 02:53:23;;;;;;;9.07;7.73;;;9.80;99.90;;;;;;4891687;29;20219;-78
2023/04/24 02:55:49;;;;;;;9.03;7.80;;;9.80;99.90;;;;;;4890867;29;20639;-76
2023/04/24 02:58:17;;;;;;;7.57;6.40;;;9.90;99.90;;;;;;4892075;29;20298;-76
2023/04/24 03:00:43;;;;;;;11.57;6.93;;;9.90;99.90;;;;;;4887430;29;20314;-77
2023/04/24 03:03:10;;;;;;;6.60;5.30;;;10.00;99.90;;;;;;4891587;29;20696;-77
2023/04/24 03:05:37;;;;;;;6.37;4.67;;;10.00;99.90;;;;;;4891727;29;20623;-76
2023/04/24 03:08:04;;;;;;;5.37;4.27;;;10.00;99.90;;;;;;4879434;29;20207;-76
2023/04/24 03:10:32;;;;;;;4.73;4.10;;;10.00;99.90;;;;;;4874824;29;20716;-78
2023/04/24 03:12:58;;;;;;;4.97;4.30;;;10.00;99.90;;;;;;4871609;29;20272;-75
2023/04/24 03:15:26;;;;;;;8.43;4.57;;;10.00;99.90;;;;;;4876188;29;20524;-77
2023/04/24 03:17:52;;;;;;;7.13;5.80;;;10.00;99.90;;;;;;4872059;29;20291;-76
2023/04/24 03:20:22;;;;;;;8.60;6.47;;;9.90;99.90;;;;;;4875489;29;20220;-76
2023/04/24 03:22:49;;;;;;;7.07;5.70;;;10.00;99.90;;;;;;4871734;29;20207;-77
2023/04/24 03:25:16;;;;;;;7.57;6.77;;;9.90;99.90;;;;;;4871781;29;20243;-77
2023/04/24 03:27:42;;;;;;;8.60;7.03;;;9.90;99.90;;;;;;4885349;29;20251;-76
2023/04/24 03:30:10;;;;;;;9.40;5.97;;;10.00;99.90;;;;;;4872366;29;20255;-77
2023/04/24 03:32:39;;;;;;;9.57;6.77;;;10.00;99.90;;;;;;4871330;29;20247;-78
2023/04/24 03:35:08;;;;;;;8.83;6.47;;;10.00;99.90;;;;;;4876009;29;20264;-77
2023/04/24 03:37:35;;;;;;;11.40;7.17;;;10.00;99.90;;;;;;4870112;29;20214;-77
2023/04/24 03:40:02;;;;;;;7.67;6.27;;;10.00;99.90;;;;;;4887518;29;20209;-76
2023/04/24 03:42:29;;;;;;;8.63;6.73;;;10.10;99.90;;;;;;4870417;29;20321;-76
2023/04/24 03:44:55;;;;;;;7.77;6.43;;;10.10;99.90;;;;;;4872003;29;20642;-77
2023/04/24 03:47:22;;;;;;;11.20;8.07;;;10.10;99.90;;;;;;4872436;29;20291;-76
2023/04/24 03:49:49;;;;;;;8.03;6.30;;;10.10;99.90;;;;;;4875069;29;20247;-77
2023/04/24 03:52:15;;;;;;;9.57;6.33;;;10.20;99.90;;;;;;4871360;29;20212;-76
2023/04/24 03:54:42;;;;;;;9.37;7.10;;;10.10;99.90;;;;;;4867938;29;20689;-77
2023/04/24 03:57:09;;;;;;;8.43;6.73;;;10.20;99.90;;;;;;4887739;29;20284;-77
2023/04/24 03:59:36;;;;;;;8.90;6.70;;;10.10;99.90;;;;;;4883998;29;20325;-76
2023/04/24 04:02:02;;;;;;;8.17;5.83;;;10.20;99.90;;;;;;4872908;29;20217;-77
2023/04/24 04:04:29;;;;;;;7.53;5.67;;;10.10;99.90;;;;;;4871910;29;20723;-76
2023/04/24 04:06:56;;;;;;;6.17;4.87;;;10.10;99.90;;;;;;4870829;29;20236;-77
2023/04/24 04:09:23;;;;;;;6.37;4.93;;;10.10;99.90;;;;;;4874183;29;20543;-76
2023/04/24 04:11:51;;;;;;;6.00;4.40;;;10.10;99.90;;;;;;4885842;29;20252;-76
2023/04/24 04:14:17;;;;;;;5.67;4.30;;;10.00;99.90;;;;;;4890775;29;20319;-78
2023/04/24 04:16:44;;;;;;;5.23;4.10;;;10.00;99.90;;;;;;4890894;29;20292;-77
2023/04/24 04:19:11;;;;;;;7.83;3.87;;;10.00;99.90;;;;;;4890843;29;20196;-77
2023/04/24 04:21:37;;;;;;;5.33;3.63;;;10.00;99.90;;;;;;4887611;29;20214;-77
2023/04/24 04:24:05;;;;;;;4.63;3.67;;;10.00;99.90;;;;;;4889890;29;20224;-76
2023/04/24 04:26:32;;;;;;;4.77;3.53;;;10.00;99.90;;;;;;4892046;29;20213;-76
2023/04/24 04:29:03;;;;;;;3.90;3.00;;;10.00;99.90;;;;;;4890711;29;20215;-79
2023/04/24 04:31:30;;;;;;;4.63;3.67;;;9.90;99.90;;;;;;4889499;29;20243;-77
2023/04/24 04:33:57;;;;;;;4.83;3.47;;;9.90;99.90;;;;;;4889379;29;20208;-77
2023/04/24 04:36:24;;;;;;;4.27;3.57;;;10.10;99.90;;;;;;4889869;29;20218;-77
2023/04/24 04:38:50;;;;;;;5.53;4.20;;;9.90;99.90;;;;;;4889356;29;20744;-76
2023/04/24 04:41:18;;;;;;;6.13;4.13;;;10.00;99.90;;;;;;4887811;29;20211;-77
2023/04/24 04:43:46;;;;;;;5.83;4.20;;;10.00;99.90;;;;;;4889294;29;20204;-76
2023/04/24 04:46:13;;;;;;;5.83;4.23;;;10.00;99.90;;;;;;4889953;29;20238;-75
2023/04/24 04:48:40;;;;;;;7.07;4.70;;;10.00;99.90;;;;;;4871197;29;20565;-76
2023/04/24 04:51:06;;;;;;;7.20;4.93;;;10.00;99.90;;;;;;4887273;29;20240;-75
2023/04/24 04:53:33;;;;;;;6.73;4.60;;;10.00;99.90;;;;;;4895189;29;20287;-77
2023/04/24 04:56:00;;;;;;;6.33;4.90;;;10.10;99.90;;;;;;4888819;29;20268;-77
2023/04/24 04:58:30;;;;;;;5.33;4.67;;;10.10;99.90;;;;;;4892222;29;20283;-75
2023/04/24 05:01:00;;;;;;;5.33;4.70;;;10.10;99.90;;;;;;4889381;29;20272;-75
2023/04/24 05:03:27;;;;;;;4.73;4.23;;;10.00;99.90;;;;;;4875306;29;20479;-75
2023/04/24 05:05:54;;;;;;;5.97;4.73;;;10.00;99.90;;;;;;4876813;29;20225;-76
2023/04/24 05:08:20;;;;;;;5.47;4.60;;;9.90;99.90;;;;;;4876073;29;20239;-76
2023/04/24 05:10:53;;;;;;;6.13;4.73;;;9.90;99.90;;;;;;4888051;29;20298;-75
2023/04/24 05:13:20;;;;;;;6.20;3.73;;;9.90;99.90;;;;;;4892863;29;20273;-76
2023/04/24 05:15:58;;;;;;;6.67;4.10;;;9.90;99.90;;;;;;4887070;29;20227;-75
2023/04/24 05:18:24;;;;;;;4.63;4.00;;;9.80;99.90;;;;;;4891240;29;20208;-76
2023/04/24 05:20:51;;;;;;;5.07;3.80;;;9.90;99.90;;;;;;4887281;29;20204;-76
2023/04/24 05:23:18;;;;;;;4.20;3.03;;;9.90;99.90;;;;;;4889713;29;20242;-77
2023/04/24 05:25:46;;;;;;;3.07;2.80;;;9.90;99.90;;;;;;4890061;29;20215;-76
2023/04/24 05:28:12;;;;;;;2.97;1.90;;;9.90;99.90;;;;;;4893413;29;20219;-76
2023/04/24 05:30:39;;;;;;;3.20;2.70;;;9.90;99.90;;;;;;4892674;29;20236;-77
2023/04/24 05:33:08;;;;;;;3.37;2.63;;;9.90;99.90;;;;;;4891620;29;20669;-76
2023/04/24 05:35:35;;;;;;;2.63;2.43;;;9.90;99.90;;;;;;4894121;29;20211;-77
2023/04/24 05:38:01;;;;;;;2.10;1.73;;;9.90;99.90;;;;;;4893223;29;20210;-76
2023/04/24 05:40:28;;;;;;;2.93;1.70;;;9.90;99.90;;;;;;4895633;29;20222;-77
2023/04/24 05:42:55;;;;;;;2.17;1.50;;;9.90;99.90;;;;;;4889777;29;20672;-77
2023/04/24 05:45:22;;;;;;;2.13;1.50;;;9.90;99.90;;;;;;4892943;29;20223;-77
2023/04/24 05:47:50;;;;;;;1.73;1.30;;;9.80;99.90;;;;;;4887571;29;20206;-78
2023/04/24 05:50:37;;;;;;;1.13;1.13;;;9.70;99.90;;;;;;4891217;29;20219;-79
2023/04/24 05:53:06;;;;;;;2.40;1.30;;;9.60;99.90;;;;;;4888940;29;20215;-76
2023/04/24 05:55:33;;;;;;;1.50;1.40;;;9.70;99.90;;;;;;4894584;29;20219;-76
2023/04/24 05:58:00;;;;;;;1.90;1.40;;;9.80;99.90;;;;;;4885016;29;20227;-76
2023/04/24 06:00:28;;;;;;;1.70;1.60;;;9.70;99.90;;;;;;4888046;29;20622;-75
2023/04/24 06:02:55;;;;;;;1.90;1.70;;;9.70;99.90;;;;;;4889775;29;20239;-76
2023/04/24 06:05:22;;;;;;;2.43;1.80;;;9.60;99.90;;;;;;4893742;29;20226;-76
2023/04/24 06:07:49;;;;;;;2.90;2.00;;;9.60;99.90;;;;;;4889573;29;20207;-76
2023/04/24 06:10:16;;;;;;;4.43;2.60;;;9.60;99.90;;;;;;4892578;29;20329;-77
2023/04/24 06:12:43;;;;;;;3.77;2.50;;;9.60;99.90;;;;;;4893071;29;20207;-77
2023/04/24 06:15:10;;;;;;;4.60;2.50;;;9.60;99.90;;;;;;4891572;29;20219;-75
2023/04/24 06:17:37;;;;;;;3.27;2.80;;;9.60;99.90;;;;;;4891603;29;20304;-77
2023/04/24 06:20:05;;;;;;;3.10;2.60;;;9.60;99.90;;;;;;4890683;29;20580;-76
2023/04/24 06:22:32;;;;;;;3.80;2.90;;;9.60;99.90;;;;;;4880460;29;20227;-77
2023/04/24 06:25:00;;;;;;;6.43;3.00;;;9.70;99.90;;;;;;4876707;29;20197;-76
2023/04/24 06:27:27;;;;;;;4.70;2.90;;;9.70;99.90;;;;;;4892266;29;20211;-76
2023/04/24 06:29:54;;;;;;;4.27;3.00;;;9.80;99.90;;;;;;4889435;29;20263;-76
2023/04/24 06:32:23;;;;;;;4.37;3.10;;;9.80;99.90;;;;;;4894915;29;20232;-79
2023/04/24 06:34:52;;;;;;;5.67;3.80;;;9.90;99.90;;;;;;4895432;29;20615;-76
2023/04/24 06:37:22;;;;;;;5.43;3.43;;;9.90;99.90;;;;;;4891060;29;20214;-77
2023/04/24 06:39:49;;;;;;;5.03;3.33;;;9.90;99.90;;;;;;4890459;29;20215;-75
2023/04/24 06:42:16;;;;;;;6.53;4.50;;;9.90;99.90;;;;;;4892875;29;20222;-76
2023/04/24 06:44:42;;;;;;;6.10;4.00;;;10.00;99.90;;;;;;4888824;29;20233;-75
2023/04/24 06:47:10;;;;;;;6.23;4.20;;;10.00;99.90;;;;;;4892769;29;20267;-75
2023/04/24 06:49:37;;;;;;;5.20;4.20;;;10.00;99.90;;;;;;4888840;29;20219;-74
2023/04/24 06:52:04;;;;;;;10.60;4.93;;;10.10;99.90;;;;;;4892858;29;20366;-75
2023/04/24 06:54:31;;;;;;;6.80;4.63;;;10.10;99.90;;;;;;4897723;29;20628;-75
2023/04/24 06:57:00;;;;;;;6.93;4.90;;;10.20;99.90;;;;;;4889847;29;20745;-76
2023/04/24 06:59:28;;;;;;;7.50;4.87;;;10.30;99.90;;;;;;4890540;29;20318;-74
2023/04/24 07:01:55;;;;;;;8.33;5.20;;;10.30;99.90;;;;;;4891049;29;20224;-74
2023/04/24 07:04:22;;;;;;;10.27;5.00;;;10.30;99.90;;;;;;4888951;29;20673;-75
2023/04/24 07:06:49;;;;;;;6.57;4.73;;;10.30;99.90;;;;;;4891879;29;20228;-76
2023/04/24 07:09:17;;;;;;;7.87;4.70;;;10.30;99.90;;;;;;4889826;29;20221;-75
2023/04/24 07:11:45;;;;;;;7.60;4.70;;;10.30;99.90;;;;;;4892843;29;20240;-74
2023/04/24 07:14:12;;;;;;;7.37;5.10;;;10.20;99.90;;;;;;4888386;29;20304;-75
2023/04/24 07:16:39;;;;;;;7.50;5.10;;;10.20;99.90;;;;;;4879210;29;20205;-74
2023/04/24 07:19:06;;;;;;;6.37;4.73;;;10.20;99.90;;;;;;4888705;29;20674;-73
2023/04/24 07:21:33;;;;;;;6.50;4.80;;;10.20;99.90;;;;;;4890823;29;20211;-74
2023/04/24 07:24:00;;;;;;;7.17;5.10;;;10.20;99.90;;;;;;4891263;29;20300;-74
2023/04/24 07:26:30;;;;;;;7.43;5.50;;;10.30;99.90;;;;;;4891227;29;20244;-75
2023/04/24 07:28:57;;;;;;;6.40;4.67;;;10.30;99.90;;;;;;4890675;29;20307;-74
2023/04/24 07:31:24;;;;;;;5.67;4.20;;;10.20;99.90;;;;;;4889173;29;20233;-74
2023/04/24 07:33:51;;;;;;;4.83;3.70;;;10.20;99.90;;;;;;4890860;29;20217;-74
2023/04/24 07:36:19;;;;;;;2.90;2.60;;;10.20;99.90;;;;;;4887438;29;20201;-74
2023/04/24 07:38:46;;;;;;;3.67;2.67;;;10.10;99.90;;;;;;4891869;29;20251;-73
2023/04/24 07:41:13;;;;;;;2.90;2.60;;;10.10;99.90;;;;;;4888440;29;20246;-73
2023/04/24 07:43:41;;;;;;;4.30;2.70;;;10.10;99.90;;;;;;4891687;29;20312;-73
2023/04/24 07:46:08;;;;;;;4.07;3.17;;;10.00;99.90;;;;;;4888239;29;20645;-75
2023/04/24 07:48:36;;;;;;;7.67;3.53;;;10.00;99.90;;;;;;4889069;29;20218;-74
2023/04/24 07:51:03;;;;;;;5.73;3.90;;;10.00;99.90;;;;;;4889009;29;20241;-74
2023/04/24 07:53:30;;;;;;;8.97;4.00;;;10.00;99.90;;;;;;4890571;29;20209;-74
2023/04/24 07:55:56;;;;;;;6.10;4.13;;;10.00;99.90;;;;;;4876068;29;20215;-75
2023/04/24 07:58:23;;;;;;;10.73;6.50;;;9.90;99.90;;;;;;4890814;29;20251;-73
2023/04/24 08:00:51;;;;;;;8.07;5.30;;;9.90;99.90;;;;;;4888020;29;20277;-76
2023/04/24 08:03:19;;;;;;;7.73;5.20;;;9.90;99.90;;;;;;4891763;29;20287;-74
2023/04/24 08:05:46;;;;;;;8.33;5.57;;;9.80;99.90;;;;;;4891702;29;20588;-76
2023/04/24 08:08:13;;;;;;;12.20;6.83;;;9.80;99.90;;;;;;4879623;29;20204;-74
2023/04/24 08:10:40;;;;;;;11.30;7.17;;;9.80;99.90;;;;;;4887880;29;20253;-76
2023/04/24 08:13:07;;;;;;;12.70;8.97;;;9.80;99.90;;;;;;4890210;29;20212;-75
2023/04/24 08:15:34;;;;;;;17.80;9.67;;;9.70;99.90;;;;;;4889802;29;20234;-74
2023/04/24 08:18:01;;;;;;;17.27;10.17;;;9.70;99.90;;;;;;4889592;29;20246;-75
2023/04/24 08:20:28;;;;;;;17.33;11.10;;;9.60;99.90;;;;;;4888291;29;20220;-74
2023/04/24 08:22:55;;;;;;;21.73;12.20;;;9.50;99.90;;;;;;4889704;29;20207;-74
2023/04/24 08:25:22;;;;;;;15.73;10.90;;;9.60;99.90;;;;;;4886509;29;20294;-73
2023/04/24 08:27:49;;;;;;;19.40;12.43;;;9.50;99.90;;;;;;4890534;29;20624;-74
2023/04/24 08:30:17;;;;;;;19.37;12.33;;;9.50;99.90;;;;;;4886401;29;20229;-74
2023/04/24 08:32:44;;;;;;;22.83;12.43;;;9.50;99.90;;;;;;4893938;29;20729;-74
2023/04/24 08:35:10;;;;;;;22.03;12.20;;;9.50;99.90;;;;;;4887927;29;20290;-74
2023/04/24 08:37:37;;;;;;;24.00;13.70;;;9.50;99.90;;;;;;4890876;29;20212;-73
2023/04/24 08:40:11;;;;;;;24.20;11.93;;;9.50;99.90;;;;;;4887690;29;20300;-75
2023/04/24 08:42:41;;;;;;;21.43;12.30;;;9.60;99.90;;;;;;4890552;29;20237;-75
2023/04/24 08:45:09;;;;;;;20.87;11.97;;;9.50;99.90;;;;;;4890863;29;20248;-75
2023/04/24 08:47:38;;;;;;;20.77;12.50;;;9.60;99.90;;;;;;4888414;29;20210;-75
2023/04/24 08:50:07;;;;;;;20.77;12.90;;;9.60;99.90;;;;;;4887631;29;20208;-75
2023/04/24 08:52:34;;;;;;;18.27;11.37;;;9.60;99.90;;;;;;4890567;29;20282;-74
2023/04/24 08:55:02;;;;;;;21.63;12.07;;;9.60;99.90;;;;;;4890569;29;20215;-75
2023/04/24 08:57:30;;;;;;;24.33;12.10;;;9.60;99.90;;;;;;4889714;29;20843;-74
2023/04/24 08:59:59;;;;;;;17.40;11.73;;;9.50;99.90;;;;;;4888438;29;20215;-77
2023/04/24 09:02:26;;;;;;;22.50;11.20;;;9.60;99.90;;;;;;4889442;29;20687;-75
2023/04/24 09:04:55;;;;;;;22.87;11.27;;;9.60;99.90;;;;;;4887207;29;20215;-76
2023/04/24 09:07:25;;;;;;;22.23;11.37;;;9.70;99.90;;;;;;4891009;29;20214;-76
2023/04/24 09:09:52;;;;;;;18.23;11.03;;;9.70;99.90;;;;;;4893541;29;20233;-76
2023/04/24 09:12:20;;;;;;;19.67;10.77;;;9.70;99.90;;;;;;4889980;29;20432;-74
2023/04/24 09:14:49;;;;;;;23.93;10.70;;;9.70;99.90;;;;;;4886535;29;20314;-74
2023/04/24 09:17:16;;;;;;;21.67;11.20;;;9.80;99.90;;;;;;4890623;29;20250;-76
2023/04/24 09:19:43;;;;;;;16.87;9.47;;;9.80;99.90;;;;;;4887108;29;20212;-74
2023/04/24 09:22:11;;;;;;;15.17;8.70;;;9.80;99.90;;;;;;4890573;29;20638;-75
2023/04/24 09:24:38;;;;;;;14.03;7.60;;;9.70;99.90;;;;;;4887017;29;20218;-76
2023/04/24 09:27:06;;;;;;;19.13;8.37;;;9.70;99.90;;;;;;4889619;29;20207;-76
2023/04/24 09:29:36;;;;;;;15.40;6.50;;;9.70;99.90;;;;;;4886987;29;20604;-76
2023/04/24 09:32:21;;;;;;;13.67;5.90;;;9.70;99.90;;;;;;4895503;29;20300;-74
2023/04/24 09:34:48;;;;;;;10.47;5.03;;;9.70;99.90;;;;;;4893709;29;20222;-74
2023/04/24 09:37:29;;;;;;;10.93;5.10;;;9.70;99.90;;;;;;4893137;29;20298;-74
2023/04/24 09:40:13;;;;;;;9.53;5.23;;;9.70;99.90;;;;;;4890631;29;20207;-74
2023/04/24 09:42:44;;;;;;;11.53;4.70;;;9.70;99.90;;;;;;4893291;29;20248;-74
2023/04/24 09:45:12;;;;;;;13.07;5.27;;;9.70;99.90;;;;;;4891692;29;20592;-75
2023/04/24 09:47:41;;;;;;;12.63;5.80;;;9.60;99.90;;;;;;4891999;29;20270;-75
2023/04/24 09:50:12;;;;;;;12.53;5.63;;;9.60;99.90;;;;;;4892633;29;20296;-77
2023/04/24 09:52:55;;;;;;;13.07;5.60;;;9.70;99.90;;;;;;4894360;29;20224;-74
2023/04/24 09:55:22;;;;;;;17.73;5.43;;;9.70;99.90;;;;;;4897350;29;20721;-74
2023/04/24 09:57:54;;;;;;;16.40;4.93;;;9.70;99.90;;;;;;4889041;29;20674;-74
2023/04/24 10:00:23;;;;;;;15.77;5.60;;;9.70;99.90;;;;;;4892780;29;20354;-74
2023/04/24 10:02:51;;;;;;;17.37;5.40;;;9.80;99.90;;;;;;4892683;29;20296;-75
2023/04/24 10:05:18;;;;;;;13.60;4.70;;;9.80;99.90;;;;;;4893318;29;20219;-75
2023/04/24 10:07:46;;;;;;;15.23;5.37;;;9.70;99.90;;;;;;4893853;29;20266;-75
2023/04/24 10:10:16;;;;;;;12.93;4.57;;;9.70;99.90;;;;;;4891409;29;20223;-76
2023/04/24 10:12:44;;;;;;;14.07;4.67;;;9.70;99.90;;;;;;4892016;29;20278;-75
2023/04/24 10:15:12;;;;;;;18.37;5.57;;;9.60;99.90;;;;;;4888807;29;20693;-75
2023/04/24 10:17:40;;;;;;;17.00;4.90;;;9.60;99.90;;;;;;4892543;29;20646;-75
2023/04/24 10:20:08;;;;;;;17.37;4.27;;;9.70;99.90;;;;;;4889800;29;20216;-76
2023/04/24 10:22:36;;;;;;;12.00;4.47;;;9.70;99.90;;;;;;4876821;29;20247;-76
2023/04/24 10:25:04;;;;;;;17.87;4.53;;;9.80;99.90;;;;;;4893119;29;20298;-75
2023/04/24 10:27:32;;;;;;;14.17;5.17;;;10.00;99.90;;;;;;4891596;29;20312;-76
2023/04/24 10:30:00;;;;;;;18.43;4.67;;;10.10;99.90;;;;;;4890175;29;20225;-74
2023/04/24 10:32:26;;;;;;;17.13;4.13;;;10.40;99.90;;;;;;4892850;29;20639;-75
2023/04/24 10:34:56;;;;;;;13.10;3.73;;;10.70;99.90;;;;;;4889633;29;20221;-76
2023/04/24 10:37:25;;;;;;;7.27;3.40;;;10.80;99.90;;;;;;4893031;29;20266;-76
2023/04/24 10:39:54;;;;;;;12.50;3.70;;;10.80;99.90;;;;;;4889230;29;20909;-76
2023/04/24 10:42:24;;;;;;;8.03;2.87;;;10.70;99.90;;;;;;4878543;29;20935;-76
2023/04/24 10:44:51;;;;;;;11.60;3.60;;;10.60;99.90;;;;;;4889801;29;20334;-75
2023/04/24 10:47:18;;;;;;;6.67;3.20;;;10.60;99.90;;;;;;4892848;29;20221;-76
2023/04/24 10:49:45;;;;;;;10.03;3.40;;;10.70;99.90;;;;;;4889558;29;20235;-74
2023/04/24 10:52:14;;;;;;;10.80;3.43;;;10.80;99.90;;;;;;4891326;29;20730;-75
2023/04/24 10:54:45;;;;;;;7.00;2.80;;;10.90;99.90;;;;;;4894368;29;20436;-74
2023/04/24 10:57:22;;;;;;;8.37;3.57;;;11.10;99.90;;;;;;4895138;29;20222;-76
2023/04/24 10:59:51;;;;;;;9.63;3.10;;;11.20;99.90;;;;;;4889610;29;20309;-76
2023/04/24 11:02:34;;;;;;;13.93;3.40;;;11.20;99.90;;;;;;4891088;29;20222;-76
2023/04/24 11:05:05;;;;;;;10.07;3.47;;;11.20;99.90;;;;;;4890299;29;20291;-77
2023/04/24 11:08:20;;;;;;;8.80;3.00;;;11.30;99.90;;;;;;4887738;29;20278;-77
2023/04/24 11:10:58;;;;;;;9.43;3.17;;;11.20;99.90;;;;;;4864491;29;20607;-76
2023/04/24 11:13:53;;;;;;;11.20;3.60;;;11.10;99.90;;;;;;4871776;29;20333;-75
2023/04/24 11:16:32;;;;;;;11.83;3.83;;;10.90;99.90;;;;;;4872220;29;20211;-76
2023/04/24 11:19:06;;;;;;;9.33;3.30;;;10.80;99.90;;;;;;4874205;29;20203;-76
2023/04/24 11:21:46;;;;;;;10.43;3.90;;;10.80;99.90;;;;;;4872178;29;20582;-76
2023/04/24 11:24:28;;;;;;;11.47;3.60;;;10.70;99.90;;;;;;4887511;29;20465;-76
2023/04/24 11:27:04;;;;;;;8.77;3.80;;;10.70;99.90;;;;;;4870851;29;20310;-75
2023/04/24 11:29:46;;;;;;;12.47;3.37;;;10.80;99.90;;;;;;4872770;29;20218;-76
2023/04/24 11:32:29;;;;;;;9.80;3.27;;;10.80;99.90;;;;;;4873514;29;20236;-76
2023/04/24 11:34:56;;;;;;;7.33;3.40;;;10.70;99.90;;;;;;4886514;29;20226;-77
2023/04/24 11:37:25;;;;;;;11.93;3.60;;;10.70;99.90;;;;;;4885081;29;20223;-75
2023/04/24 11:39:57;;;;;;;9.40;3.20;;;10.60;99.90;;;;;;4874341;29;20260;-76
2023/04/24 11:42:25;;;;;;;7.27;2.67;;;10.60;99.90;;;;;;4873381;29;20746;-76
2023/04/24 11:44:55;;;;;;;10.60;3.20;;;10.40;99.90;;;;;;4870398;29;20260;-76
2023/04/24 11:47:33;;;;;;;7.67;3.20;;;10.30;99.90;;;;;;4872712;29;20214;-76
2023/04/24 11:50:02;;;;;;;7.80;3.10;;;10.40;99.90;;;;;;4884160;29;20217;-75
2023/04/24 11:52:30;;;;;;;5.67;2.87;;;10.60;99.90;;;;;;4872303;29;20242;-77
2023/04/24 11:54:59;;;;;;;7.93;2.80;;;10.80;99.90;;;;;;4877531;29;20215;-75
2023/04/24 11:57:33;;;;;;;7.00;2.30;;;10.90;99.90;;;;;;4872116;29;20669;-76
2023/04/24 12:00:05;;;;;;;2.77;2.10;;;11.10;99.90;;;;;;4869320;29;20261;-75
2023/04/24 12:02:35;;;;;;;5.93;2.23;;;11.50;99.90;;;;;;4871188;29;20211;-76
2023/04/24 12:05:06;;;;;;;7.13;1.87;;;11.60;99.90;;;;;;4873015;29;20242;-76
2023/04/24 12:07:42;;;;;;;4.17;1.80;;;11.60;99.90;;;;;;4872247;29;20297;-79
2023/04/24 12:10:09;;;;;;;4.33;1.53;;;11.70;99.90;;;;;;4883436;29;20249;-76
2023/04/24 12:12:36;;;;;;;2.57;1.67;;;11.50;99.90;;;;;;4891301;29;20234;-76
2023/04/24 12:15:08;;;;;;;2.53;1.47;;;11.40;99.90;;;;;;4887897;29;20226;-76
2023/04/24 12:17:36;;;;;;;2.67;1.50;;;11.20;99.90;;;;;;4890830;29;20270;-76
2023/04/24 12:20:06;;;;;;;6.37;1.43;;;11.10;99.90;;;;;;4888001;29;20211;-78
2023/04/24 12:22:54;;;;;;;3.23;1.30;;;11.00;99.90;;;;;;4890092;29;20675;-78
2023/04/24 12:25:32;;;;;;;2.23;1.20;;;10.90;99.90;;;;;;4890419;29;20656;-75
2023/04/24 12:28:05;;;;;;;3.03;1.33;;;10.90;99.90;;;;;;4872451;29;20268;-76
2023/04/24 12:30:35;;;;;;;2.13;1.47;;;10.90;99.90;;;;;;4889906;29;20305;-77
2023/04/24 12:33:03;;;;;;;2.77;1.33;;;11.00;99.90;;;;;;4890243;29;20249;-75
2023/04/24 12:35:33;;;;;;;2.17;1.40;;;11.10;99.90;;;;;;4891141;29;20211;-76
2023/04/24 12:38:08;;;;;;;1.93;1.17;;;11.30;99.90;;;;;;4886982;29;20758;-78
2023/04/24 12:40:35;;;;;;;3.30;1.43;;;11.70;99.90;;;;;;4888404;29;20214;-76
2023/04/24 12:43:02;;;;;;;2.50;1.53;;;11.90;99.90;;;;;;4887821;29;20285;-75
2023/04/24 12:45:29;;;;;;;4.97;1.53;;;12.10;99.90;;;;;;4891237;29;20293;-76
2023/04/24 12:47:56;;;;;;;3.53;1.67;;;12.10;99.90;;;;;;4889086;29;20656;-79
2023/04/24 12:50:23;;;;;;;5.07;2.23;;;11.90;99.90;;;;;;4888561;29;20215;-76
2023/04/24 12:52:50;;;;;;;2.20;1.20;;;11.60;99.90;;;;;;4889199;29;20245;-74
2023/04/24 12:55:17;;;;;;;5.13;1.70;;;11.40;99.90;;;;;;4887868;29;20651;-76